createdAt,value
2019-02-20T00:02:56.401Z,97989.89
2019-02-20T00:05:24.755Z,97992.34
2019-02-20T00:07:52.957Z,97990.13
2019-02-20T00:10:21.188Z,97989.89
2019-02-20T00:12:49.550Z,97985.62
2019-02-20T00:15:17.759Z,97985.89
2019-02-20T00:17:45.985Z,97990.47
2019-02-20T00:20:14.239Z,98001.69
2019-02-20T00:22:42.471Z,98006.60
2019-02-20T00:25:29.751Z,98002.56
2019-02-20T00:28:16.937Z,98000.65
2019-02-20T00:33:32.473Z,97995.38
2019-02-20T00:36:00.716Z,98000.98
2019-02-20T00:38:47.869Z,97998.06
2019-02-20T00:41:16.099Z,97993.23
2019-02-20T00:49:12.981Z,97998.38
2019-02-20T00:52:00.090Z,97994.94
2019-02-20T00:54:28.454Z,97999.21
2019-02-20T00:56:56.644Z,97991.45
2019-02-20T00:59:24.957Z,97997.06
2019-02-20T01:01:53.446Z,97994.57
2019-02-20T01:06:55.105Z,97988.52
2019-02-20T01:09:42.698Z,97993.59
2019-02-20T01:14:59.688Z,97993.59
2019-02-20T01:17:27.938Z,97998.47
2019-02-20T01:19:56.236Z,97997.33
2019-02-20T01:22:24.521Z,97997.63
2019-02-20T01:24:52.859Z,97994.67
2019-02-20T01:27:21.204Z,98001.66
2019-02-20T01:29:49.388Z,98005.39
2019-02-20T01:32:36.558Z,98000.55
2019-02-20T01:35:04.771Z,98001.66
2019-02-20T01:37:33.049Z,98008.69
2019-02-20T01:40:01.353Z,98004.09
2019-02-20T01:42:29.587Z,98005.20
2019-02-20T01:44:57.803Z,98007.38
2019-02-20T01:52:34.148Z,97994.20
2019-02-20T01:55:02.476Z,97996.09
2019-02-20T01:57:30.760Z,97998.28
2019-02-20T01:59:59.012Z,97992.90
2019-02-20T02:02:27.320Z,97992.36
2019-02-20T02:04:55.527Z,97993.40
2019-02-20T02:07:23.792Z,97984.59
2019-02-20T02:09:51.974Z,97987.52
2019-02-20T02:12:20.189Z,97988.09
2019-02-20T02:15:07.394Z,97988.13
2019-02-20T02:17:35.600Z,97988.87
2019-02-20T02:20:03.800Z,97987.89
2019-02-20T02:22:51.268Z,97990.28
2019-02-20T02:25:19.516Z,97989.98
2019-02-20T02:27:47.731Z,97983.86
2019-02-20T02:30:15.978Z,97991.39
2019-02-20T02:32:44.135Z,97987.66
2019-02-20T02:35:12.300Z,97980.56
2019-02-20T02:37:40.499Z,97987.09
2019-02-20T02:40:08.937Z,97980.56
2019-02-20T02:42:37.132Z,97987.36
2019-02-20T02:45:05.622Z,97985.20
2019-02-20T02:47:33.889Z,97992.91
2019-02-20T02:50:02.031Z,97992.59
2019-02-20T02:52:30.331Z,97986.92
2019-02-20T02:54:58.522Z,97985.51
2019-02-20T02:57:26.798Z,97987.70
2019-02-20T02:59:55.069Z,97991.73
2019-02-20T03:02:23.205Z,97987.45
2019-02-20T03:04:51.524Z,97987.16
2019-02-20T03:07:19.709Z,97983.05
2019-02-20T03:09:47.901Z,97988.63
2019-02-20T03:12:16.148Z,97991.92
2019-02-20T03:14:44.344Z,97999.15
2019-02-20T03:17:12.512Z,97995.72
2019-02-20T03:19:40.717Z,97992.33
2019-02-20T03:22:08.919Z,97990.88
2019-02-20T03:24:37.130Z,97996.33
2019-02-20T03:27:05.292Z,97988.87
2019-02-20T03:29:33.567Z,97996.77
2019-02-20T03:32:01.766Z,97991.19
2019-02-20T03:34:30.046Z,97987.39
2019-02-20T03:36:58.279Z,97994.41
2019-02-20T03:39:26.507Z,98000.05
2019-02-20T03:41:54.713Z,97999.86
2019-02-20T03:44:22.916Z,98005.17
2019-02-20T03:46:51.105Z,97997.84
2019-02-20T03:49:19.349Z,98001.09
2019-02-20T03:51:47.525Z,98005.44
2019-02-20T03:54:15.691Z,98004.76
2019-02-20T03:56:43.881Z,98009.33
2019-02-20T03:59:12.060Z,98009.59
2019-02-20T04:01:40.227Z,98015.52
2019-02-20T04:04:08.432Z,98015.72
2019-02-20T04:06:36.596Z,98018.44
2019-02-20T04:09:05.381Z,98014.61
2019-02-20T04:11:33.590Z,98024.52
2019-02-20T04:14:01.763Z,98021.87
2019-02-20T04:16:29.941Z,98017.05
2019-02-20T04:18:58.156Z,98017.53
2019-02-20T04:21:26.334Z,98020.72
2019-02-20T04:24:02.050Z,98023.91
2019-02-20T04:26:24.401Z,98021.16
2019-02-20T04:28:52.555Z,98025.49
2019-02-20T04:31:20.794Z,98018.94
2019-02-20T04:33:49.221Z,98019.44
2019-02-20T04:36:17.858Z,98016.45
2019-02-20T04:38:46.380Z,98021.26
2019-02-20T04:41:14.768Z,98017.05
2019-02-20T04:43:42.988Z,98010.70
2019-02-20T04:46:11.383Z,98011.20
2019-02-20T04:48:39.678Z,98017.49
2019-02-20T04:51:07.850Z,98018.10
2019-02-20T04:53:36.157Z,98020.66
2019-02-20T04:56:04.620Z,98020.72
2019-02-20T04:58:33.246Z,98018.27
2019-02-20T05:01:01.656Z,98018.27
2019-02-20T05:03:29.982Z,98029.83
2019-02-20T05:05:58.239Z,98029.89
2019-02-20T05:08:26.400Z,98037.36
2019-02-20T05:10:54.620Z,98035.44
2019-02-20T05:13:22.796Z,98037.66
2019-02-20T05:15:50.991Z,98034.84
2019-02-20T05:18:19.261Z,98036.98
2019-02-20T05:20:47.463Z,98035.64
2019-02-20T05:23:15.656Z,98042.13
2019-02-20T05:25:43.949Z,98036.25
2019-02-20T05:28:12.112Z,98035.64
2019-02-20T05:30:40.329Z,98030.23
2019-02-20T05:33:08.684Z,98026.30
2019-02-20T05:35:36.897Z,98021.26
2019-02-20T05:38:05.068Z,98025.56
2019-02-20T05:40:33.355Z,98024.08
2019-02-20T05:43:01.526Z,98034.91
2019-02-20T05:45:29.701Z,98050.70
2019-02-20T05:47:57.899Z,98046.20
2019-02-20T05:50:26.053Z,98041.86
2019-02-20T05:52:54.302Z,98045.82
2019-02-20T05:55:22.523Z,98046.12
2019-02-20T05:57:52.666Z,98045.82
2019-02-20T06:00:20.533Z,98050.63
2019-02-20T06:02:48.733Z,98052.23
2019-02-20T06:05:16.925Z,98051.97
2019-02-20T06:07:45.110Z,98052.28
2019-02-20T06:10:13.464Z,98055.70
2019-02-20T06:12:41.619Z,98051.54
2019-02-20T06:15:09.921Z,98052.31
2019-02-20T06:17:40.386Z,98064.95
2019-02-20T06:20:08.669Z,98064.98
2019-02-20T06:22:36.944Z,98070.86
2019-02-20T06:25:05.353Z,98070.36
2019-02-20T06:27:33.554Z,98069.45
2019-02-20T06:30:01.801Z,98070.09
2019-02-20T06:32:30.020Z,98078.66
2019-02-20T06:34:58.225Z,98079.44
2019-02-20T06:37:26.377Z,98076.98
2019-02-20T06:39:54.586Z,98083.80
2019-02-20T06:42:22.862Z,98080.78
2019-02-20T06:44:51.036Z,98091.77
2019-02-20T06:47:19.221Z,98104.31
2019-02-20T06:49:47.474Z,98110.06
2019-02-20T06:52:15.653Z,98114.03
2019-02-20T06:54:53.271Z,98107.54
2019-02-20T06:57:13.770Z,98115.88
2019-02-20T06:59:41.975Z,98118.90
2019-02-20T07:02:10.253Z,98118.90
2019-02-20T07:04:38.403Z,98120.01
2019-02-20T07:07:08.897Z,98117.55
2019-02-20T07:10:02.255Z,98119.30
2019-02-20T07:12:33.176Z,98122.19
2019-02-20T07:15:07.384Z,98123.00
2019-02-20T07:18:00.662Z,98125.92
2019-02-20T07:20:38.422Z,98125.48
2019-02-20T07:23:28.998Z,98128.14
2019-02-20T07:26:13.975Z,98139.58
2019-02-20T07:29:02.120Z,98140.68
2019-02-20T07:31:30.287Z,98138.83
2019-02-20T07:33:58.477Z,98143.11
2019-02-20T07:36:26.724Z,98146.06
2019-02-20T07:38:55.077Z,98153.02
2019-02-20T07:41:23.208Z,98152.22
2019-02-20T07:43:51.422Z,98148.98
2019-02-20T07:46:19.622Z,98148.18
2019-02-20T07:48:47.820Z,98150.70
2019-02-20T07:51:16.027Z,98157.20
2019-02-20T07:53:44.282Z,98146.00
2019-02-20T07:56:12.480Z,98148.89
2019-02-20T07:58:40.622Z,98144.86
2019-02-20T08:01:08.886Z,98144.25
2019-02-20T08:03:37.088Z,98151.61
2019-02-20T08:06:05.259Z,98155.55
2019-02-20T08:08:33.448Z,98156.66
2019-02-20T08:11:01.674Z,98154.74
2019-02-20T08:13:38.889Z,98154.27
2019-02-20T08:15:59.725Z,98159.83
2019-02-20T08:18:27.916Z,98164.22
2019-02-20T08:20:56.173Z,98168.80
2019-02-20T08:23:24.576Z,98158.91
2019-02-20T08:25:52.780Z,98162.58
2019-02-20T08:28:20.999Z,98159.28
2019-02-20T08:30:49.288Z,98160.42
2019-02-20T08:33:17.484Z,98159.05
2019-02-20T08:35:45.669Z,98164.16
2019-02-20T08:38:13.881Z,98093.25
2019-02-20T08:40:42.126Z,98164.13
2019-02-20T08:43:10.335Z,98168.16
2019-02-20T08:45:38.605Z,98173.78
2019-02-20T08:48:06.775Z,98180.27
2019-02-20T08:50:34.991Z,98178.66
2019-02-20T08:53:03.212Z,98177.00
2019-02-20T08:55:32.359Z,98184.47
2019-02-20T08:58:00.801Z,98183.88
2019-02-20T09:00:28.997Z,98182.59
2019-02-20T09:02:57.500Z,98186.12
2019-02-20T09:05:26.361Z,98183.43
2019-02-20T09:07:57.285Z,98189.61
2019-02-20T09:10:25.610Z,98183.94
2019-02-20T09:12:53.840Z,98184.47
2019-02-20T09:15:22.209Z,98187.91
2019-02-20T09:17:50.546Z,98187.27
2019-02-20T09:20:18.820Z,98190.06
2019-02-20T09:22:47.128Z,98184.14
2019-02-20T09:25:19.812Z,98190.27
2019-02-20T09:27:45.203Z,98191.72
2019-02-20T09:30:13.704Z,98192.08
2019-02-20T09:32:42.123Z,98194.23
2019-02-20T09:35:10.316Z,98192.65
2019-02-20T09:37:38.695Z,98200.81
2019-02-20T09:40:09.869Z,98200.31
2019-02-20T09:42:40.278Z,98201.27
2019-02-20T09:45:08.648Z,98200.22
2019-02-20T09:47:36.882Z,98203.34
2019-02-20T09:50:05.286Z,98201.47
2019-02-20T09:52:33.660Z,98209.53
2019-02-20T09:55:01.972Z,98206.64
2019-02-20T09:57:31.494Z,98208.73
2019-02-20T09:59:59.805Z,98214.05
2019-02-20T10:02:28.019Z,98208.97
2019-02-20T10:04:56.243Z,98210.31
2019-02-20T10:07:24.404Z,98210.01
2019-02-20T10:09:52.676Z,98209.53
2019-02-20T10:12:20.921Z,98212.40
2019-02-20T10:14:49.757Z,98213.14
2019-02-20T10:17:17.987Z,98211.80
2019-02-20T10:19:46.154Z,98214.55
2019-02-20T10:22:14.332Z,98213.98
2019-02-20T10:24:42.540Z,98210.69
2019-02-20T10:27:10.690Z,98208.44
2019-02-20T10:29:38.850Z,98210.22
2019-02-20T10:32:07.031Z,98215.37
2019-02-20T10:34:35.155Z,98215.37
2019-02-20T10:37:03.474Z,98208.88
2019-02-20T10:39:31.657Z,98212.88
2019-02-20T10:41:59.817Z,98213.42
2019-02-20T10:44:28.056Z,98216.95
2019-02-20T10:46:56.382Z,98221.26
2019-02-20T10:49:24.769Z,98224.42
2019-02-20T10:51:53.099Z,98216.41
2019-02-20T10:54:21.237Z,98223.20
2019-02-20T10:56:49.467Z,98225.90
2019-02-20T10:59:17.534Z,98221.86
2019-02-20T11:01:45.781Z,98224.85
2019-02-20T11:04:13.904Z,98222.80
2019-02-20T11:06:42.061Z,98221.42
2019-02-20T11:09:10.205Z,98224.44
2019-02-20T11:11:38.349Z,98222.26
2019-02-20T11:14:06.514Z,98228.69
2019-02-20T11:16:34.661Z,98232.78
2019-02-20T11:19:02.809Z,98230.63
2019-02-20T11:21:30.948Z,98224.95
2019-02-20T11:23:59.089Z,98226.00
2019-02-20T11:26:27.221Z,98219.94
2019-02-20T11:28:55.389Z,98223.06
2019-02-20T11:31:23.525Z,98219.80
2019-02-20T11:33:51.665Z,98222.77
2019-02-20T11:36:19.810Z,98213.34
2019-02-20T11:38:47.954Z,98218.46
2019-02-20T11:41:16.090Z,98207.52
2019-02-20T11:43:44.249Z,98202.98
2019-02-20T11:46:12.417Z,98197.30
2019-02-20T11:48:40.571Z,98198.58
2019-02-20T11:51:08.733Z,98121.78
2019-02-20T11:53:37.494Z,98192.59
2019-02-20T11:56:05.739Z,98191.62
2019-02-20T11:58:33.925Z,98187.52
2019-02-20T12:01:02.064Z,98181.83
2019-02-20T12:03:30.216Z,98177.32
2019-02-20T12:05:58.369Z,98177.86
2019-02-20T12:08:26.492Z,98181.36
2019-02-20T12:10:54.948Z,98183.18
2019-02-20T12:13:23.081Z,98184.22
2019-02-20T12:15:51.220Z,98175.10
2019-02-20T12:18:19.355Z,98179.14
2019-02-20T12:20:47.526Z,98174.56
2019-02-20T12:23:15.659Z,98179.88
2019-02-20T12:25:43.804Z,98180.92
2019-02-20T12:28:11.939Z,98183.18
2019-02-20T12:30:40.106Z,98185.94
2019-02-20T12:33:08.259Z,98177.32
2019-02-20T12:35:36.420Z,98178.60
2019-02-20T12:38:04.768Z,98180.69
2019-02-20T12:40:32.909Z,98182.09
2019-02-20T12:43:01.076Z,98188.09
2019-02-20T12:45:29.236Z,98187.72
2019-02-20T12:47:57.399Z,98189.57
2019-02-20T12:50:25.782Z,98192.59
2019-02-20T12:52:53.939Z,98186.00
2019-02-20T12:55:22.104Z,98187.72
2019-02-20T12:57:50.306Z,98187.95
2019-02-20T13:00:19.277Z,98182.41
2019-02-20T13:02:47.450Z,98180.02
2019-02-20T13:05:15.842Z,98184.22
2019-02-20T13:07:44.170Z,98192.56
2019-02-20T13:10:12.374Z,98187.48
2019-02-20T13:12:40.512Z,98191.45
2019-02-20T13:15:08.724Z,98184.42
2019-02-20T13:17:37.033Z,98182.34
2019-02-20T13:20:05.195Z,98179.88
2019-02-20T13:22:33.381Z,98175.84
2019-02-20T13:25:01.516Z,98178.84
2019-02-20T13:27:29.648Z,98179.14
2019-02-20T13:29:57.877Z,98170.16
2019-02-20T13:32:27.192Z,98170.47
2019-02-20T13:34:55.309Z,98174.03
2019-02-20T13:37:23.459Z,98172.92
2019-02-20T13:39:52.170Z,98178.00
2019-02-20T13:42:20.488Z,98174.50
2019-02-20T13:44:48.706Z,98179.11
2019-02-20T13:47:17.003Z,98175.81
2019-02-20T13:49:45.137Z,98168.58
2019-02-20T13:52:13.314Z,98167.97
2019-02-20T13:54:41.448Z,98167.30
2019-02-20T13:57:09.567Z,98165.59
2019-02-20T13:59:38.037Z,98165.34
2019-02-20T14:02:06.187Z,98157.81
2019-02-20T14:04:34.329Z,98166.63
2019-02-20T14:07:02.543Z,98168.04
2019-02-20T14:09:30.686Z,98163.94
2019-02-20T14:11:58.839Z,98162.36
2019-02-20T14:14:26.981Z,98159.97
2019-02-20T14:16:55.353Z,98169.69
2019-02-20T14:19:23.487Z,98163.00
2019-02-20T14:21:51.633Z,98165.69
2019-02-20T14:24:19.769Z,98157.88
2019-02-20T14:26:47.914Z,98156.53
2019-02-20T14:29:16.103Z,98157.58
2019-02-20T14:31:44.262Z,98160.81
2019-02-20T14:34:12.800Z,98154.02
2019-02-20T14:36:40.946Z,98160.50
2019-02-20T14:39:09.102Z,98160.20
2019-02-20T14:41:37.238Z,98160.58
2019-02-20T14:44:05.385Z,98155.93
2019-02-20T14:46:33.544Z,98156.47
2019-02-20T14:49:01.680Z,98146.52
2019-02-20T14:51:36.001Z,98144.90
2019-02-20T14:54:04.147Z,98156.47
2019-02-20T14:56:32.276Z,98148.20
2019-02-20T14:59:00.508Z,98151.09
2019-02-20T15:01:28.666Z,98156.57
2019-02-20T15:03:56.819Z,98157.92
2019-02-20T15:06:25.553Z,98149.81
2019-02-20T15:08:53.710Z,98149.30
2019-02-20T15:11:21.870Z,98143.42
2019-02-20T15:13:50.014Z,98153.34
2019-02-20T15:16:18.152Z,98156.34
2019-02-20T15:18:46.286Z,98144.97
2019-02-20T15:21:14.432Z,98150.15
2019-02-20T15:23:42.899Z,98145.77
2019-02-20T15:26:11.033Z,98151.50
2019-02-20T15:28:39.185Z,98140.42
2019-02-20T15:31:07.325Z,98153.88
2019-02-20T15:33:35.464Z,98154.19
2019-02-20T15:36:03.636Z,98157.45
2019-02-20T15:38:31.774Z,98158.72
2019-02-20T15:41:00.332Z,98154.75
2019-02-20T15:43:28.477Z,98156.13
2019-02-20T15:45:56.617Z,98159.33
2019-02-20T15:48:24.779Z,98154.19
2019-02-20T15:50:53.154Z,98160.67
2019-02-20T15:53:21.402Z,98154.69
2019-02-20T15:55:49.537Z,98152.06
2019-02-20T15:58:17.987Z,98155.06
2019-02-20T16:00:46.721Z,98160.07
2019-02-20T16:03:15.082Z,98156.13
2019-02-20T16:05:43.230Z,98156.87
2019-02-20T16:08:11.396Z,98157.78
2019-02-20T16:10:39.538Z,98158.95
2019-02-20T16:13:07.686Z,98156.20
2019-02-20T16:15:35.927Z,98157.31
2019-02-20T16:18:04.074Z,98164.64
2019-02-20T16:20:33.615Z,98163.16
2019-02-20T16:23:01.978Z,98159.94
2019-02-20T16:25:30.128Z,98158.89
2019-02-20T16:27:58.274Z,98163.30
2019-02-20T16:30:26.430Z,98164.34
2019-02-20T16:32:55.001Z,98162.75
2019-02-20T16:35:23.143Z,98161.11
2019-02-20T16:37:51.286Z,98164.27
2019-02-20T16:40:19.429Z,98165.45
2019-02-20T16:42:47.579Z,98163.80
2019-02-20T16:45:24.968Z,98165.75
2019-02-20T16:47:53.614Z,98163.06
2019-02-20T16:50:21.773Z,98170.86
2019-02-20T16:52:49.904Z,98171.91
2019-02-20T16:55:19.693Z,98169.48
2019-02-20T16:57:56.283Z,98164.94
2019-02-20T17:00:18.381Z,98173.75
2019-02-20T17:02:46.895Z,98179.97
2019-02-20T17:05:15.956Z,98175.16
2019-02-20T17:07:44.174Z,98173.52
2019-02-20T17:10:12.316Z,98181.15
2019-02-20T17:12:40.478Z,98178.70
2019-02-20T17:15:09.048Z,98183.03
2019-02-20T17:17:37.209Z,98181.75
2019-02-20T17:20:06.102Z,98185.66
2019-02-20T17:22:34.266Z,98188.17
2019-02-20T17:25:02.405Z,98191.47
2019-02-20T17:27:30.565Z,98200.02
2019-02-20T17:29:58.789Z,98197.59
2019-02-20T17:32:26.939Z,98204.55
2019-02-20T17:34:55.179Z,98201.36
2019-02-20T17:37:23.646Z,98203.45
2019-02-20T17:39:51.776Z,98199.41
2019-02-20T17:42:19.945Z,98200.45
2019-02-20T17:44:48.145Z,98198.06
2019-02-20T17:47:16.285Z,98211.78
2019-02-20T17:49:44.461Z,98199.41
2019-02-20T17:52:12.596Z,98213.66
2019-02-20T17:54:41.046Z,98208.34
2019-02-20T17:57:11.176Z,98218.24
2019-02-20T17:59:38.982Z,98219.65
2019-02-20T18:02:07.121Z,98214.81
2019-02-20T18:04:36.010Z,98225.87
2019-02-20T18:07:04.461Z,98227.78
2019-02-20T18:09:32.779Z,98231.22
2019-02-20T18:12:01.082Z,98236.59
2019-02-20T18:14:29.310Z,98236.30
2019-02-20T18:16:57.668Z,98240.66
2019-02-20T18:19:26.065Z,98239.91
2019-02-20T18:21:54.247Z,98247.45
2019-02-20T18:24:22.410Z,98237.83
2019-02-20T18:26:50.964Z,98243.20
2019-02-20T18:29:19.336Z,98245.05
2019-02-20T18:31:47.662Z,98244.25
2019-02-20T18:34:16.012Z,98239.62
2019-02-20T18:36:44.293Z,98252.83
2019-02-20T18:39:12.448Z,98242.30
2019-02-20T18:41:42.841Z,98244.22
2019-02-20T18:44:11.784Z,98251.72
2019-02-20T18:46:40.078Z,98259.25
2019-02-20T18:49:08.233Z,98260.15
2019-02-20T18:51:36.456Z,98259.64
2019-02-20T18:54:04.619Z,98262.84
2019-02-20T18:56:34.168Z,98264.70
2019-02-20T18:59:02.388Z,98269.02
2019-02-20T19:01:30.585Z,98268.45
2019-02-20T19:03:58.733Z,98267.17
2019-02-20T19:06:27.005Z,98273.06
2019-02-20T19:09:07.687Z,98270.31
2019-02-20T19:11:45.163Z,98274.14
2019-02-20T19:14:22.886Z,98272.49
2019-02-20T19:17:10.240Z,98273.84
2019-02-20T19:20:00.533Z,98269.86
2019-02-20T19:23:03.260Z,98278.73
2019-02-20T19:25:44.616Z,98270.10
2019-02-20T19:28:18.609Z,98275.54
2019-02-20T19:31:09.145Z,98272.31
2019-02-20T19:33:59.670Z,98274.20
2019-02-20T19:36:34.362Z,98273.90
2019-02-20T19:39:27.010Z,98277.39
2019-02-20T19:42:07.946Z,98275.84
2019-02-20T19:44:55.288Z,98283.09
2019-02-20T19:47:42.648Z,98286.06
2019-02-20T19:50:36.063Z,98285.84
2019-02-20T19:53:29.304Z,98290.42
2019-02-20T19:56:03.647Z,98292.33
2019-02-20T19:58:55.247Z,98291.23
2019-02-20T20:01:51.269Z,98293.91
2019-02-20T20:04:44.666Z,98295.27
2019-02-20T20:07:27.304Z,98302.22
2019-02-20T20:10:14.613Z,98302.81
2019-02-20T20:13:01.887Z,98303.86
2019-02-20T20:15:36.786Z,98304.97
2019-02-20T20:18:22.842Z,98306.08
2019-02-20T20:20:56.649Z,98304.97
2019-02-20T20:23:59.088Z,98309.84
2019-02-20T20:26:49.567Z,98308.47
2019-02-20T20:29:39.967Z,98310.13
2019-02-20T20:32:36.524Z,98314.98
2019-02-20T20:35:29.925Z,98319.02
2019-02-20T20:38:08.033Z,98317.37
2019-02-20T20:40:46.837Z,98320.06
2019-02-20T20:43:36.945Z,98321.19
2019-02-20T20:46:36.356Z,98325.44
2019-02-20T20:49:22.505Z,98330.88
2019-02-20T20:52:08.515Z,98326.84
2019-02-20T20:54:54.791Z,98331.95
2019-02-20T20:57:34.241Z,98329.02
2019-02-20T21:00:07.160Z,98325.52
2019-02-20T21:02:37.673Z,98331.19
2019-02-20T21:05:40.202Z,98337.33
2019-02-20T21:08:19.166Z,98333.59
2019-02-20T21:11:12.367Z,98334.93
2019-02-20T21:13:50.185Z,98337.08
2019-02-20T21:16:36.482Z,98331.73
2019-02-20T21:19:09.809Z,98332.78
2019-02-20T21:21:52.150Z,98337.34
2019-02-20T21:24:34.480Z,98330.73
2019-02-20T21:27:25.080Z,98336.30
2019-02-20T21:30:13.389Z,98338.16
2019-02-20T21:33:00.449Z,98337.41
2019-02-20T21:35:48.240Z,98335.25
2019-02-20T21:38:41.502Z,98335.25
2019-02-20T21:41:34.805Z,98336.87
2019-02-20T21:44:40.526Z,98339.80
2019-02-20T21:47:46.046Z,98336.06
2019-02-20T21:50:48.491Z,98332.54
2019-02-20T21:53:44.729Z,98338.97
2019-02-20T21:56:15.625Z,98347.33
2019-02-20T21:59:01.715Z,98353.30
2019-02-20T22:01:51.889Z,98355.17
2019-02-20T22:04:28.158Z,98357.33
2019-02-20T22:07:13.638Z,98359.27
2019-02-20T22:09:58.203Z,98354.18
2019-02-20T22:12:26.184Z,98359.27
2019-02-20T22:15:25.803Z,98358.41
2019-02-20T22:17:56.513Z,98353.02
2019-02-20T22:20:46.853Z,98349.85
2019-02-20T22:23:25.143Z,98357.06
2019-02-20T22:26:21.705Z,98357.35
2019-02-20T22:28:58.531Z,98350.92
2019-02-20T22:31:45.837Z,98351.52
2019-02-20T22:34:48.299Z,98344.26
2019-02-20T22:37:47.423Z,98346.41
2019-02-20T22:40:19.197Z,98348.00
2019-02-20T22:43:12.675Z,98350.98
2019-02-20T22:46:03.012Z,98350.22
2019-02-20T22:48:48.872Z,98350.15
2019-02-20T22:51:34.784Z,98351.03
2019-02-20T22:54:06.869Z,98353.45
2019-02-20T22:56:52.920Z,98352.63
2019-02-20T22:59:49.144Z,98349.64
2019-02-20T23:02:37.283Z,98352.03
2019-02-20T23:05:24.633Z,98348.53
2019-02-20T23:08:15.034Z,98349.88
2019-02-20T23:11:08.446Z,98350.92
2019-02-20T23:13:50.398Z,98355.82
2019-02-20T23:16:18.634Z,98358.75
2019-02-20T23:18:46.795Z,98359.34
2019-02-20T23:21:15.056Z,98356.36
2019-02-20T23:23:44.058Z,98362.78
2019-02-20T23:26:12.288Z,98363.30
2019-02-20T23:28:40.460Z,98363.02
2019-02-20T23:31:08.621Z,98364.88
2019-02-20T23:33:37.025Z,98362.48
2019-02-20T23:36:05.179Z,98362.78
2019-02-20T23:38:33.380Z,98362.78
2019-02-20T23:41:01.634Z,98360.39
2019-02-20T23:43:29.898Z,98363.37
2019-02-20T23:45:58.223Z,98362.78
2019-02-20T23:48:26.429Z,98367.92
2019-02-20T23:50:54.586Z,98366.36
2019-02-20T23:53:22.734Z,98364.72
2019-02-20T23:55:50.910Z,98373.54
2019-02-20T23:58:19.159Z,98373.02
